sensor_id;sensor_type;location;lat;lon;timestamp;P1;durP1;ratioP1;P2;durP2;ratioP2
35795;SDS011;21916;52.428;13.302;2024-01-06T00:01:49;48.47;;;21.73;;
35795;SDS011;21916;52.428;13.302;2024-01-06T00:04:15;56.17;;;24.45;;
35795;SDS011;21916;52.428;13.302;2024-01-06T00:06:40;55.50;;;23.17;;
35795;SDS011;21916;52.428;13.302;2024-01-06T00:09:06;59.47;;;23.95;;
35795;SDS011;21916;52.428;13.302;2024-01-06T00:11:33;54.35;;;22.77;;
35795;SDS011;21916;52.428;13.302;2024-01-06T00:13:59;57.55;;;24.55;;
35795;SDS011;21916;52.428;13.302;2024-01-06T00:16:24;50.67;;;22.20;;
35795;SDS011;21916;52.428;13.302;2024-01-06T00:18:52;58.83;;;24.13;;
35795;SDS011;21916;52.428;13.302;2024-01-06T00:21:19;53.10;;;23.52;;
35795;SDS011;21916;52.428;13.302;2024-01-06T00:23:44;60.45;;;24.25;;
35795;SDS011;21916;52.428;13.302;2024-01-06T00:26:13;50.03;;;23.08;;
35795;SDS011;21916;52.428;13.302;2024-01-06T00:28:39;58.80;;;24.40;;
35795;SDS011;21916;52.428;13.302;2024-01-06T00:31:04;55.38;;;23.75;;
35795;SDS011;21916;52.428;13.302;2024-01-06T00:33:31;63.88;;;23.10;;
35795;SDS011;21916;52.428;13.302;2024-01-06T00:35:56;61.38;;;25.63;;
35795;SDS011;21916;52.428;13.302;2024-01-06T00:38:22;56.28;;;24.25;;
35795;SDS011;21916;52.428;13.302;2024-01-06T00:40:48;55.85;;;23.85;;
35795;SDS011;21916;52.428;13.302;2024-01-06T00:43:14;55.40;;;22.08;;
35795;SDS011;21916;52.428;13.302;2024-01-06T00:45:39;64.60;;;24.77;;
35795;SDS011;21916;52.428;13.302;2024-01-06T00:48:05;56.53;;;24.23;;
35795;SDS011;21916;52.428;13.302;2024-01-06T00:50:31;51.60;;;23.52;;
35795;SDS011;21916;52.428;13.302;2024-01-06T00:52:57;54.85;;;22.38;;
35795;SDS011;21916;52.428;13.302;2024-01-06T00:55:22;56.38;;;22.77;;
35795;SDS011;21916;52.428;13.302;2024-01-06T00:57:49;52.05;;;22.60;;
35795;SDS011;21916;52.428;13.302;2024-01-06T01:00:15;54.13;;;24.08;;
35795;SDS011;21916;52.428;13.302;2024-01-06T01:02:41;49.88;;;22.98;;
35795;SDS011;21916;52.428;13.302;2024-01-06T01:05:07;55.53;;;23.45;;
35795;SDS011;21916;52.428;13.302;2024-01-06T01:07:33;53.20;;;22.35;;
35795;SDS011;21916;52.428;13.302;2024-01-06T01:09:59;47.30;;;21.95;;
35795;SDS011;21916;52.428;13.302;2024-01-06T01:12:24;60.30;;;21.63;;
35795;SDS011;21916;52.428;13.302;2024-01-06T01:14:50;53.53;;;23.30;;
35795;SDS011;21916;52.428;13.302;2024-01-06T01:17:17;58.40;;;22.48;;
35795;SDS011;21916;52.428;13.302;2024-01-06T01:19:42;50.13;;;21.35;;
35795;SDS011;21916;52.428;13.302;2024-01-06T01:22:09;58.00;;;24.00;;
35795;SDS011;21916;52.428;13.302;2024-01-06T01:24:35;48.33;;;22.35;;
35795;SDS011;21916;52.428;13.302;2024-01-06T01:27:00;50.40;;;22.55;;
35795;SDS011;21916;52.428;13.302;2024-01-06T01:29:26;49.55;;;21.15;;
35795;SDS011;21916;52.428;13.302;2024-01-06T01:31:52;51.45;;;22.25;;
35795;SDS011;21916;52.428;13.302;2024-01-06T01:34:18;49.38;;;20.70;;
35795;SDS011;21916;52.428;13.302;2024-01-06T01:36:43;58.10;;;23.45;;
35795;SDS011;21916;52.428;13.302;2024-01-06T01:39:09;59.80;;;22.65;;
35795;SDS011;21916;52.428;13.302;2024-01-06T01:41:36;46.05;;;21.02;;
35795;SDS011;21916;52.428;13.302;2024-01-06T01:44:02;50.30;;;21.15;;
35795;SDS011;21916;52.428;13.302;2024-01-06T01:46:28;42.92;;;20.90;;
35795;SDS011;21916;52.428;13.302;2024-01-06T01:48:55;46.85;;;21.48;;
35795;SDS011;21916;52.428;13.302;2024-01-06T01:51:26;45.42;;;21.25;;
35795;SDS011;21916;52.428;13.302;2024-01-06T01:53:54;55.40;;;22.35;;
35795;SDS011;21916;52.428;13.302;2024-01-06T01:56:20;50.22;;;20.65;;
35795;SDS011;21916;52.428;13.302;2024-01-06T01:58:46;46.38;;;21.38;;
35795;SDS011;21916;52.428;13.302;2024-01-06T02:01:14;50.03;;;22.08;;
35795;SDS011;21916;52.428;13.302;2024-01-06T02:03:43;46.78;;;19.88;;
35795;SDS011;21916;52.428;13.302;2024-01-06T02:06:09;44.25;;;20.27;;
35795;SDS011;21916;52.428;13.302;2024-01-06T02:08:35;49.63;;;21.75;;
35795;SDS011;21916;52.428;13.302;2024-01-06T02:11:01;51.00;;;19.77;;
35795;SDS011;21916;52.428;13.302;2024-01-06T02:13:35;48.72;;;21.75;;
35795;SDS011;21916;52.428;13.302;2024-01-06T02:16:02;47.60;;;20.08;;
35795;SDS011;21916;52.428;13.302;2024-01-06T02:18:28;48.25;;;19.38;;
35795;SDS011;21916;52.428;13.302;2024-01-06T02:20:55;49.58;;;20.73;;
35795;SDS011;21916;52.428;13.302;2024-01-06T02:23:23;45.40;;;21.13;;
35795;SDS011;21916;52.428;13.302;2024-01-06T02:25:49;44.90;;;20.80;;
35795;SDS011;21916;52.428;13.302;2024-01-06T02:28:15;42.95;;;19.77;;
35795;SDS011;21916;52.428;13.302;2024-01-06T02:30:41;50.45;;;20.08;;
35795;SDS011;21916;52.428;13.302;2024-01-06T02:33:06;46.17;;;19.40;;
35795;SDS011;21916;52.428;13.302;2024-01-06T02:35:32;38.67;;;18.38;;
35795;SDS011;21916;52.428;13.302;2024-01-06T02:37:58;42.30;;;20.40;;
35795;SDS011;21916;52.428;13.302;2024-01-06T02:40:23;42.92;;;20.42;;
35795;SDS011;21916;52.428;13.302;2024-01-06T02:42:49;40.90;;;18.83;;
35795;SDS011;21916;52.428;13.302;2024-01-06T02:45:15;44.97;;;20.38;;
35795;SDS011;21916;52.428;13.302;2024-01-06T02:47:40;45.30;;;19.38;;
35795;SDS011;21916;52.428;13.302;2024-01-06T02:50:06;53.70;;;21.95;;
35795;SDS011;21916;52.428;13.302;2024-01-06T02:52:32;40.22;;;19.25;;
35795;SDS011;21916;52.428;13.302;2024-01-06T02:54:58;50.25;;;19.90;;
35795;SDS011;21916;52.428;13.302;2024-01-06T02:57:24;49.25;;;20.25;;
35795;SDS011;21916;52.428;13.302;2024-01-06T02:59:49;44.53;;;19.30;;
35795;SDS011;21916;52.428;13.302;2024-01-06T03:02:16;43.95;;;18.55;;
35795;SDS011;21916;52.428;13.302;2024-01-06T03:04:42;44.28;;;18.98;;
35795;SDS011;21916;52.428;13.302;2024-01-06T03:07:08;43.53;;;18.85;;
35795;SDS011;21916;52.428;13.302;2024-01-06T03:09:33;42.67;;;17.73;;
35795;SDS011;21916;52.428;13.302;2024-01-06T03:11:59;46.05;;;20.40;;
35795;SDS011;21916;52.428;13.302;2024-01-06T03:14:24;48.90;;;20.02;;
35795;SDS011;21916;52.428;13.302;2024-01-06T03:16:50;47.08;;;18.85;;
35795;SDS011;21916;52.428;13.302;2024-01-06T03:19:16;49.92;;;19.92;;
35795;SDS011;21916;52.428;13.302;2024-01-06T03:21:41;44.47;;;20.23;;
35795;SDS011;21916;52.428;13.302;2024-01-06T03:24:07;39.28;;;19.20;;
35795;SDS011;21916;52.428;13.302;2024-01-06T03:26:34;41.30;;;19.23;;
35795;SDS011;21916;52.428;13.302;2024-01-06T03:29:00;42.33;;;19.52;;
35795;SDS011;21916;52.428;13.302;2024-01-06T03:31:28;46.63;;;19.85;;
35795;SDS011;21916;52.428;13.302;2024-01-06T03:33:54;40.65;;;19.85;;
35795;SDS011;21916;52.428;13.302;2024-01-06T03:36:21;41.45;;;18.92;;
35795;SDS011;21916;52.428;13.302;2024-01-06T03:38:47;50.63;;;18.38;;
35795;SDS011;21916;52.428;13.302;2024-01-06T03:41:12;48.45;;;19.25;;
35795;SDS011;21916;52.428;13.302;2024-01-06T03:43:38;39.38;;;18.52;;
35795;SDS011;21916;52.428;13.302;2024-01-06T03:46:04;43.30;;;18.70;;
35795;SDS011;21916;52.428;13.302;2024-01-06T03:48:31;41.72;;;19.25;;
35795;SDS011;21916;52.428;13.302;2024-01-06T03:50:59;42.03;;;18.63;;
35795;SDS011;21916;52.428;13.302;2024-01-06T03:53:25;44.60;;;18.83;;
35795;SDS011;21916;52.428;13.302;2024-01-06T03:55:51;40.20;;;18.63;;
35795;SDS011;21916;52.428;13.302;2024-01-06T03:58:17;45.53;;;19.63;;
35795;SDS011;21916;52.428;13.302;2024-01-06T04:00:43;39.83;;;17.88;;
35795;SDS011;21916;52.428;13.302;2024-01-06T04:03:09;54.25;;;20.25;;
35795;SDS011;21916;52.428;13.302;2024-01-06T04:05:35;43.50;;;18.85;;
35795;SDS011;21916;52.428;13.302;2024-01-06T04:08:01;43.17;;;20.02;;
35795;SDS011;21916;52.428;13.302;2024-01-06T04:10:26;46.97;;;20.13;;
35795;SDS011;21916;52.428;13.302;2024-01-06T04:12:52;47.35;;;20.38;;
35795;SDS011;21916;52.428;13.302;2024-01-06T04:15:18;54.60;;;20.60;;
35795;SDS011;21916;52.428;13.302;2024-01-06T04:17:44;40.63;;;18.67;;
35795;SDS011;21916;52.428;13.302;2024-01-06T04:20:11;46.40;;;18.85;;
35795;SDS011;21916;52.428;13.302;2024-01-06T04:22:37;52.42;;;19.55;;
35795;SDS011;21916;52.428;13.302;2024-01-06T04:25:04;43.00;;;18.38;;
35795;SDS011;21916;52.428;13.302;2024-01-06T04:27:29;51.13;;;19.70;;
35795;SDS011;21916;52.428;13.302;2024-01-06T04:29:56;46.47;;;20.17;;
35795;SDS011;21916;52.428;13.302;2024-01-06T04:32:23;41.78;;;18.63;;
35795;SDS011;21916;52.428;13.302;2024-01-06T04:34:48;44.42;;;19.20;;
35795;SDS011;21916;52.428;13.302;2024-01-06T04:37:14;42.83;;;19.05;;
35795;SDS011;21916;52.428;13.302;2024-01-06T04:39:40;59.63;;;21.45;;
35795;SDS011;21916;52.428;13.302;2024-01-06T04:42:05;49.10;;;20.10;;
35795;SDS011;21916;52.428;13.302;2024-01-06T04:44:31;44.20;;;20.05;;
35795;SDS011;21916;52.428;13.302;2024-01-06T04:46:57;52.92;;;20.80;;
35795;SDS011;21916;52.428;13.302;2024-01-06T04:49:23;49.65;;;19.63;;
35795;SDS011;21916;52.428;13.302;2024-01-06T04:51:48;46.42;;;20.08;;
35795;SDS011;21916;52.428;13.302;2024-01-06T04:54:14;46.08;;;18.50;;
35795;SDS011;21916;52.428;13.302;2024-01-06T04:56:40;50.38;;;18.70;;
35795;SDS011;21916;52.428;13.302;2024-01-06T04:59:13;51.88;;;20.38;;
35795;SDS011;21916;52.428;13.302;2024-01-06T05:01:38;47.20;;;20.10;;
35795;SDS011;21916;52.428;13.302;2024-01-06T05:04:04;45.63;;;17.13;;
35795;SDS011;21916;52.428;13.302;2024-01-06T05:06:30;52.60;;;19.75;;
35795;SDS011;21916;52.428;13.302;2024-01-06T05:08:56;48.03;;;20.08;;
35795;SDS011;21916;52.428;13.302;2024-01-06T05:11:22;48.63;;;21.85;;
35795;SDS011;21916;52.428;13.302;2024-01-06T05:13:47;50.70;;;20.10;;
35795;SDS011;21916;52.428;13.302;2024-01-06T05:16:13;62.33;;;21.27;;
35795;SDS011;21916;52.428;13.302;2024-01-06T05:18:39;51.88;;;20.67;;
35795;SDS011;21916;52.428;13.302;2024-01-06T05:21:04;45.67;;;19.55;;
35795;SDS011;21916;52.428;13.302;2024-01-06T05:23:30;49.58;;;20.05;;
35795;SDS011;21916;52.428;13.302;2024-01-06T05:25:56;53.80;;;19.42;;
35795;SDS011;21916;52.428;13.302;2024-01-06T05:28:22;44.97;;;18.83;;
35795;SDS011;21916;52.428;13.302;2024-01-06T05:30:47;49.88;;;19.50;;
35795;SDS011;21916;52.428;13.302;2024-01-06T05:33:13;56.13;;;19.27;;
35795;SDS011;21916;52.428;13.302;2024-01-06T05:35:40;54.50;;;20.90;;
35795;SDS011;21916;52.428;13.302;2024-01-06T05:38:06;48.38;;;20.55;;
35795;SDS011;21916;52.428;13.302;2024-01-06T05:40:31;51.45;;;20.35;;
35795;SDS011;21916;52.428;13.302;2024-01-06T05:42:57;51.67;;;19.45;;
35795;SDS011;21916;52.428;13.302;2024-01-06T05:45:23;48.63;;;19.23;;
35795;SDS011;21916;52.428;13.302;2024-01-06T05:47:48;48.05;;;20.35;;
35795;SDS011;21916;52.428;13.302;2024-01-06T05:50:15;50.55;;;19.00;;
35795;SDS011;21916;52.428;13.302;2024-01-06T05:52:41;55.60;;;20.70;;
35795;SDS011;21916;52.428;13.302;2024-01-06T05:55:07;46.85;;;20.00;;
35795;SDS011;21916;52.428;13.302;2024-01-06T05:57:34;60.65;;;21.83;;
35795;SDS011;21916;52.428;13.302;2024-01-06T06:00:00;52.90;;;20.80;;
35795;SDS011;21916;52.428;13.302;2024-01-06T06:02:26;52.25;;;20.98;;
35795;SDS011;21916;52.428;13.302;2024-01-06T06:04:52;51.22;;;20.23;;
35795;SDS011;21916;52.428;13.302;2024-01-06T06:07:18;50.55;;;20.80;;
35795;SDS011;21916;52.428;13.302;2024-01-06T06:09:44;57.75;;;21.48;;
35795;SDS011;21916;52.428;13.302;2024-01-06T06:12:12;58.90;;;22.52;;
35795;SDS011;21916;52.428;13.302;2024-01-06T06:14:38;49.92;;;20.98;;
35795;SDS011;21916;52.428;13.302;2024-01-06T06:17:04;51.40;;;22.95;;
35795;SDS011;21916;52.428;13.302;2024-01-06T06:19:29;60.08;;;22.48;;
35795;SDS011;21916;52.428;13.302;2024-01-06T06:21:56;51.13;;;20.33;;
35795;SDS011;21916;52.428;13.302;2024-01-06T06:24:21;52.63;;;23.67;;
35795;SDS011;21916;52.428;13.302;2024-01-06T06:26:47;51.47;;;22.30;;
35795;SDS011;21916;52.428;13.302;2024-01-06T06:29:13;53.30;;;22.92;;
35795;SDS011;21916;52.428;13.302;2024-01-06T06:31:39;60.13;;;22.02;;
35795;SDS011;21916;52.428;13.302;2024-01-06T06:34:04;51.28;;;21.60;;
35795;SDS011;21916;52.428;13.302;2024-01-06T06:36:30;63.00;;;24.05;;
35795;SDS011;21916;52.428;13.302;2024-01-06T06:38:56;60.47;;;22.45;;
35795;SDS011;21916;52.428;13.302;2024-01-06T06:41:23;58.60;;;21.40;;
35795;SDS011;21916;52.428;13.302;2024-01-06T06:43:50;56.97;;;22.67;;
35795;SDS011;21916;52.428;13.302;2024-01-06T06:46:16;61.33;;;22.42;;
35795;SDS011;21916;52.428;13.302;2024-01-06T06:48:42;57.95;;;22.67;;
35795;SDS011;21916;52.428;13.302;2024-01-06T06:51:07;54.28;;;23.48;;
35795;SDS011;21916;52.428;13.302;2024-01-06T06:53:33;58.08;;;22.90;;
35795;SDS011;21916;52.428;13.302;2024-01-06T06:55:59;62.55;;;23.35;;
35795;SDS011;21916;52.428;13.302;2024-01-06T06:58:24;63.25;;;23.77;;
35795;SDS011;21916;52.428;13.302;2024-01-06T07:00:50;63.42;;;24.83;;
35795;SDS011;21916;52.428;13.302;2024-01-06T07:03:16;51.35;;;21.25;;
35795;SDS011;21916;52.428;13.302;2024-01-06T07:05:41;50.92;;;19.83;;
35795;SDS011;21916;52.428;13.302;2024-01-06T07:08:07;66.95;;;22.10;;
35795;SDS011;21916;52.428;13.302;2024-01-06T07:10:32;51.97;;;21.23;;
35795;SDS011;21916;52.428;13.302;2024-01-06T07:12:58;56.58;;;21.42;;
35795;SDS011;21916;52.428;13.302;2024-01-06T07:15:24;58.53;;;23.52;;
35795;SDS011;21916;52.428;13.302;2024-01-06T07:17:49;64.15;;;22.38;;
35795;SDS011;21916;52.428;13.302;2024-01-06T07:20:15;55.88;;;20.67;;
35795;SDS011;21916;52.428;13.302;2024-01-06T07:22:41;54.75;;;21.35;;
35795;SDS011;21916;52.428;13.302;2024-01-06T07:25:06;56.55;;;22.92;;
35795;SDS011;21916;52.428;13.302;2024-01-06T07:27:32;58.45;;;23.58;;
35795;SDS011;21916;52.428;13.302;2024-01-06T07:29:58;67.20;;;21.83;;
35795;SDS011;21916;52.428;13.302;2024-01-06T07:32:24;58.10;;;20.58;;
35795;SDS011;21916;52.428;13.302;2024-01-06T07:34:50;57.15;;;22.08;;
35795;SDS011;21916;52.428;13.302;2024-01-06T07:37:15;52.75;;;20.33;;
35795;SDS011;21916;52.428;13.302;2024-01-06T07:39:41;49.28;;;21.95;;
35795;SDS011;21916;52.428;13.302;2024-01-06T07:42:07;52.42;;;21.10;;
35795;SDS011;21916;52.428;13.302;2024-01-06T07:44:33;50.08;;;20.27;;
35795;SDS011;21916;52.428;13.302;2024-01-06T07:46:58;50.25;;;20.27;;
35795;SDS011;21916;52.428;13.302;2024-01-06T07:49:25;60.92;;;22.20;;
35795;SDS011;21916;52.428;13.302;2024-01-06T07:51:51;65.65;;;21.48;;
35795;SDS011;21916;52.428;13.302;2024-01-06T07:54:16;55.80;;;20.25;;
35795;SDS011;21916;52.428;13.302;2024-01-06T07:56:42;43.33;;;19.00;;
35795;SDS011;21916;52.428;13.302;2024-01-06T07:59:09;60.95;;;23.35;;
35795;SDS011;21916;52.428;13.302;2024-01-06T08:01:35;51.97;;;21.58;;
35795;SDS011;21916;52.428;13.302;2024-01-06T08:04:01;58.58;;;20.10;;
35795;SDS011;21916;52.428;13.302;2024-01-06T08:06:27;52.20;;;20.30;;
35795;SDS011;21916;52.428;13.302;2024-01-06T08:08:52;51.97;;;20.60;;
35795;SDS011;21916;52.428;13.302;2024-01-06T08:11:18;55.83;;;19.15;;
35795;SDS011;21916;52.428;13.302;2024-01-06T08:13:44;49.75;;;21.73;;
35795;SDS011;21916;52.428;13.302;2024-01-06T08:16:09;47.25;;;19.60;;
35795;SDS011;21916;52.428;13.302;2024-01-06T08:18:35;62.80;;;21.27;;
35795;SDS011;21916;52.428;13.302;2024-01-06T08:21:01;52.13;;;19.38;;
35795;SDS011;21916;52.428;13.302;2024-01-06T08:23:26;58.70;;;21.73;;
35795;SDS011;21916;52.428;13.302;2024-01-06T08:25:52;57.45;;;22.23;;
35795;SDS011;21916;52.428;13.302;2024-01-06T08:28:18;62.83;;;21.63;;
35795;SDS011;21916;52.428;13.302;2024-01-06T08:30:44;58.15;;;21.00;;
35795;SDS011;21916;52.428;13.302;2024-01-06T08:33:10;52.85;;;20.40;;
35795;SDS011;21916;52.428;13.302;2024-01-06T08:35:36;57.60;;;20.65;;
35795;SDS011;21916;52.428;13.302;2024-01-06T08:38:08;53.67;;;20.48;;
35795;SDS011;21916;52.428;13.302;2024-01-06T08:40:34;55.60;;;20.88;;
35795;SDS011;21916;52.428;13.302;2024-01-06T08:43:00;54.50;;;20.25;;
35795;SDS011;21916;52.428;13.302;2024-01-06T08:45:26;55.35;;;20.70;;
35795;SDS011;21916;52.428;13.302;2024-01-06T08:47:52;62.38;;;21.52;;
35795;SDS011;21916;52.428;13.302;2024-01-06T08:50:18;68.03;;;21.90;;
35795;SDS011;21916;52.428;13.302;2024-01-06T08:52:44;56.35;;;21.17;;
35795;SDS011;21916;52.428;13.302;2024-01-06T08:55:09;76.47;;;23.13;;
35795;SDS011;21916;52.428;13.302;2024-01-06T08:57:35;63.05;;;23.95;;
35795;SDS011;21916;52.428;13.302;2024-01-06T09:00:02;65.18;;;23.50;;
35795;SDS011;21916;52.428;13.302;2024-01-06T09:02:31;66.97;;;23.55;;
35795;SDS011;21916;52.428;13.302;2024-01-06T09:04:56;58.38;;;22.55;;
35795;SDS011;21916;52.428;13.302;2024-01-06T09:07:22;63.00;;;21.15;;
35795;SDS011;21916;52.428;13.302;2024-01-06T09:09:48;69.97;;;23.65;;
35795;SDS011;21916;52.428;13.302;2024-01-06T09:12:13;62.63;;;22.85;;
35795;SDS011;21916;52.428;13.302;2024-01-06T09:14:39;68.97;;;23.48;;
35795;SDS011;21916;52.428;13.302;2024-01-06T09:17:06;55.97;;;23.10;;
35795;SDS011;21916;52.428;13.302;2024-01-06T09:19:32;70.55;;;24.55;;
35795;SDS011;21916;52.428;13.302;2024-01-06T09:21:59;62.03;;;21.90;;
35795;SDS011;21916;52.428;13.302;2024-01-06T09:24:24;65.55;;;22.55;;
35795;SDS011;21916;52.428;13.302;2024-01-06T09:26:50;56.58;;;20.23;;
35795;SDS011;21916;52.428;13.302;2024-01-06T09:29:16;60.45;;;22.65;;
35795;SDS011;21916;52.428;13.302;2024-01-06T09:31:42;57.55;;;21.90;;
35795;SDS011;21916;52.428;13.302;2024-01-06T09:34:11;52.53;;;21.60;;
35795;SDS011;21916;52.428;13.302;2024-01-06T09:36:37;57.47;;;22.15;;
35795;SDS011;21916;52.428;13.302;2024-01-06T09:39:03;55.55;;;23.10;;
35795;SDS011;21916;52.428;13.302;2024-01-06T09:41:29;65.32;;;23.80;;
35795;SDS011;21916;52.428;13.302;2024-01-06T09:43:56;67.25;;;23.65;;
35795;SDS011;21916;52.428;13.302;2024-01-06T09:46:25;56.78;;;19.90;;
35795;SDS011;21916;52.428;13.302;2024-01-06T09:48:53;54.92;;;20.42;;
35795;SDS011;21916;52.428;13.302;2024-01-06T09:51:19;66.25;;;22.23;;
35795;SDS011;21916;52.428;13.302;2024-01-06T09:56:21;63.90;;;24.05;;
35795;SDS011;21916;52.428;13.302;2024-01-06T09:58:50;56.67;;;22.10;;
35795;SDS011;21916;52.428;13.302;2024-01-06T10:01:15;53.60;;;21.08;;
35795;SDS011;21916;52.428;13.302;2024-01-06T10:03:43;57.67;;;22.05;;
35795;SDS011;21916;52.428;13.302;2024-01-06T10:06:10;66.07;;;23.20;;
35795;SDS011;21916;52.428;13.302;2024-01-06T10:08:36;49.85;;;21.13;;
35795;SDS011;21916;52.428;13.302;2024-01-06T10:11:06;73.72;;;23.83;;
35795;SDS011;21916;52.428;13.302;2024-01-06T10:13:37;63.03;;;23.58;;
35795;SDS011;21916;52.428;13.302;2024-01-06T10:16:04;64.47;;;21.95;;
35795;SDS011;21916;52.428;13.302;2024-01-06T10:18:30;63.45;;;21.58;;
35795;SDS011;21916;52.428;13.302;2024-01-06T10:20:56;66.13;;;22.85;;
35795;SDS011;21916;52.428;13.302;2024-01-06T10:23:23;67.35;;;23.20;;
35795;SDS011;21916;52.428;13.302;2024-01-06T10:25:53;64.45;;;23.65;;
35795;SDS011;21916;52.428;13.302;2024-01-06T10:28:22;56.10;;;22.33;;
35795;SDS011;21916;52.428;13.302;2024-01-06T10:30:52;62.38;;;22.08;;
35795;SDS011;21916;52.428;13.302;2024-01-06T10:33:19;57.53;;;22.67;;
35795;SDS011;21916;52.428;13.302;2024-01-06T10:35:45;53.58;;;21.65;;
35795;SDS011;21916;52.428;13.302;2024-01-06T10:38:12;56.83;;;22.48;;
35795;SDS011;21916;52.428;13.302;2024-01-06T10:40:39;52.50;;;20.73;;
35795;SDS011;21916;52.428;13.302;2024-01-06T10:43:04;57.75;;;22.20;;
35795;SDS011;21916;52.428;13.302;2024-01-06T10:45:31;59.45;;;21.85;;
35795;SDS011;21916;52.428;13.302;2024-01-06T10:48:01;55.42;;;22.95;;
35795;SDS011;21916;52.428;13.302;2024-01-06T10:50:31;52.95;;;22.17;;
35795;SDS011;21916;52.428;13.302;2024-01-06T10:52:57;60.78;;;23.88;;
35795;SDS011;21916;52.428;13.302;2024-01-06T10:55:24;57.33;;;22.65;;
35795;SDS011;21916;52.428;13.302;2024-01-06T10:57:51;53.88;;;22.92;;
35795;SDS011;21916;52.428;13.302;2024-01-06T11:00:18;57.00;;;22.23;;
35795;SDS011;21916;52.428;13.302;2024-01-06T11:02:44;50.03;;;20.40;;
35795;SDS011;21916;52.428;13.302;2024-01-06T11:05:12;48.45;;;21.10;;
35795;SDS011;21916;52.428;13.302;2024-01-06T11:07:38;48.47;;;20.13;;
35795;SDS011;21916;52.428;13.302;2024-01-06T11:10:10;49.85;;;20.80;;
35795;SDS011;21916;52.428;13.302;2024-01-06T11:12:43;47.70;;;21.25;;
35795;SDS011;21916;52.428;13.302;2024-01-06T11:15:09;51.92;;;21.63;;
35795;SDS011;21916;52.428;13.302;2024-01-06T11:20:20;47.35;;;20.38;;
35795;SDS011;21916;52.428;13.302;2024-01-06T11:22:47;47.22;;;21.70;;
35795;SDS011;21916;52.428;13.302;2024-01-06T11:25:13;55.67;;;22.63;;
35795;SDS011;21916;52.428;13.302;2024-01-06T11:27:41;53.10;;;21.50;;
35795;SDS011;21916;52.428;13.302;2024-01-06T11:30:11;55.03;;;22.15;;
35795;SDS011;21916;52.428;13.302;2024-01-06T11:32:48;52.10;;;20.73;;
35795;SDS011;21916;52.428;13.302;2024-01-06T11:35:17;43.40;;;18.67;;
35795;SDS011;21916;52.428;13.302;2024-01-06T11:42:41;51.33;;;21.70;;
35795;SDS011;21916;52.428;13.302;2024-01-06T11:45:07;49.35;;;20.73;;
35795;SDS011;21916;52.428;13.302;2024-01-06T11:47:37;50.45;;;20.40;;
35795;SDS011;21916;52.428;13.302;2024-01-06T11:50:04;46.72;;;20.27;;
35795;SDS011;21916;52.428;13.302;2024-01-06T11:52:31;52.35;;;20.33;;
35795;SDS011;21916;52.428;13.302;2024-01-06T11:54:59;51.58;;;23.35;;
35795;SDS011;21916;52.428;13.302;2024-01-06T11:57:26;55.47;;;22.00;;
35795;SDS011;21916;52.428;13.302;2024-01-06T11:59:52;55.90;;;19.83;;
35795;SDS011;21916;52.428;13.302;2024-01-06T12:02:18;47.30;;;20.85;;
35795;SDS011;21916;52.428;13.302;2024-01-06T12:04:48;55.08;;;21.73;;
35795;SDS011;21916;52.428;13.302;2024-01-06T12:07:16;44.67;;;20.23;;
35795;SDS011;21916;52.428;13.302;2024-01-06T12:09:42;52.22;;;21.48;;
35795;SDS011;21916;52.428;13.302;2024-01-06T12:12:08;45.63;;;20.02;;
35795;SDS011;21916;52.428;13.302;2024-01-06T12:14:35;50.15;;;20.38;;
35795;SDS011;21916;52.428;13.302;2024-01-06T12:17:01;46.22;;;20.65;;
35795;SDS011;21916;52.428;13.302;2024-01-06T12:19:30;48.05;;;20.55;;
35795;SDS011;21916;52.428;13.302;2024-01-06T12:21:57;46.33;;;23.23;;
35795;SDS011;21916;52.428;13.302;2024-01-06T12:24:23;50.53;;;20.40;;
35795;SDS011;21916;52.428;13.302;2024-01-06T12:26:49;50.15;;;20.65;;
35795;SDS011;21916;52.428;13.302;2024-01-06T12:29:16;51.72;;;21.38;;
35795;SDS011;21916;52.428;13.302;2024-01-06T12:31:43;48.17;;;20.30;;
35795;SDS011;21916;52.428;13.302;2024-01-06T12:34:09;45.67;;;20.35;;
35795;SDS011;21916;52.428;13.302;2024-01-06T12:36:36;46.92;;;19.95;;
35795;SDS011;21916;52.428;13.302;2024-01-06T12:39:03;50.78;;;19.80;;
35795;SDS011;21916;52.428;13.302;2024-01-06T12:41:29;47.80;;;21.25;;
35795;SDS011;21916;52.428;13.302;2024-01-06T12:43:54;50.92;;;21.02;;
35795;SDS011;21916;52.428;13.302;2024-01-06T12:46:20;47.22;;;21.23;;
35795;SDS011;21916;52.428;13.302;2024-01-06T12:48:46;41.63;;;18.58;;
35795;SDS011;21916;52.428;13.302;2024-01-06T12:51:11;51.63;;;20.83;;
35795;SDS011;21916;52.428;13.302;2024-01-06T12:53:37;44.28;;;19.15;;
35795;SDS011;21916;52.428;13.302;2024-01-06T12:56:04;46.45;;;19.63;;
35795;SDS011;21916;52.428;13.302;2024-01-06T12:58:30;43.47;;;19.35;;
35795;SDS011;21916;52.428;13.302;2024-01-06T13:00:56;48.65;;;18.65;;
35795;SDS011;21916;52.428;13.302;2024-01-06T13:03:22;43.85;;;18.13;;
35795;SDS011;21916;52.428;13.302;2024-01-06T13:05:47;48.67;;;19.95;;
35795;SDS011;21916;52.428;13.302;2024-01-06T13:08:13;46.70;;;20.00;;
35795;SDS011;21916;52.428;13.302;2024-01-06T13:10:39;40.95;;;18.65;;
35795;SDS011;21916;52.428;13.302;2024-01-06T13:13:04;44.10;;;19.70;;
35795;SDS011;21916;52.428;13.302;2024-01-06T13:15:30;46.58;;;19.48;;
35795;SDS011;21916;52.428;13.302;2024-01-06T13:17:56;48.67;;;20.73;;
35795;SDS011;21916;52.428;13.302;2024-01-06T13:20:22;45.25;;;19.52;;
35795;SDS011;21916;52.428;13.302;2024-01-06T13:22:47;43.60;;;19.42;;
35795;SDS011;21916;52.428;13.302;2024-01-06T13:25:13;51.97;;;20.20;;
35795;SDS011;21916;52.428;13.302;2024-01-06T13:27:40;43.13;;;19.67;;
35795;SDS011;21916;52.428;13.302;2024-01-06T13:30:06;48.25;;;20.95;;
35795;SDS011;21916;52.428;13.302;2024-01-06T13:32:32;51.58;;;20.88;;
35795;SDS011;21916;52.428;13.302;2024-01-06T13:34:57;47.30;;;20.60;;
35795;SDS011;21916;52.428;13.302;2024-01-06T13:37:29;45.95;;;20.67;;
35795;SDS011;21916;52.428;13.302;2024-01-06T13:39:56;44.10;;;18.55;;
35795;SDS011;21916;52.428;13.302;2024-01-06T13:42:22;42.17;;;18.27;;
35795;SDS011;21916;52.428;13.302;2024-01-06T13:44:47;44.08;;;19.52;;
35795;SDS011;21916;52.428;13.302;2024-01-06T13:47:13;47.70;;;19.55;;
35795;SDS011;21916;52.428;13.302;2024-01-06T13:49:40;44.45;;;20.35;;
35795;SDS011;21916;52.428;13.302;2024-01-06T13:52:05;51.13;;;20.35;;
35795;SDS011;21916;52.428;13.302;2024-01-06T13:54:35;43.05;;;19.02;;
35795;SDS011;21916;52.428;13.302;2024-01-06T13:57:01;43.80;;;18.55;;
35795;SDS011;21916;52.428;13.302;2024-01-06T13:59:27;45.40;;;20.02;;
35795;SDS011;21916;52.428;13.302;2024-01-06T14:01:53;44.08;;;19.02;;
35795;SDS011;21916;52.428;13.302;2024-01-06T14:04:19;43.75;;;18.13;;
35795;SDS011;21916;52.428;13.302;2024-01-06T14:06:45;45.10;;;18.33;;
35795;SDS011;21916;52.428;13.302;2024-01-06T14:09:13;44.45;;;18.63;;
35795;SDS011;21916;52.428;13.302;2024-01-06T14:11:39;39.17;;;17.63;;
35795;SDS011;21916;52.428;13.302;2024-01-06T14:14:04;40.03;;;18.42;;